IGO091 VOMM-VOBL
Flight info
| Callsign | IGO091 |
|---|---|
| Flight time | 0h 35m |
| Altitude | 16000 |
| Route | MMV W117 BIA |
| Aircraft | A21N/M-SDE2E3FGHIRWXY/LB1 |
Departure
| Time | 2026-04-22 07:39 |
|---|---|
| Airport | Chennai International Airport (VOMM) |
Arrival
| Time | 2026-04-22 08:15 |
|---|---|
| Airport | Kempegowda International Airport Bengaluru (VOBL) |
| Time | Latitude | Longitude | Altitude | Speed | Heading |
|---|---|---|---|---|---|
| 2026-04-22 07:26 | 12.98466 | 80.16599 | 58 ft | 0 kts | 159° |
| 2026-04-22 07:28 | 12.98495 | 80.16589 | 52 ft | 2 kts | 166° |
| 2026-04-22 07:28 | 12.98511 | 80.16587 | 50 ft | 2 kts | 183° |
| 2026-04-22 07:28 | 12.98526 | 80.16594 | 50 ft | 2 kts | 236° |
| 2026-04-22 07:29 | 12.98530 | 80.16601 | 50 ft | 0 kts | 247° |
| 2026-04-22 07:29 | 12.98530 | 80.16602 | 50 ft | 0 kts | 248° |
| 2026-04-22 07:32 | 12.98525 | 80.16589 | 57 ft | 5 kts | 250° |
| 2026-04-22 07:32 | 12.98506 | 80.16534 | 54 ft | 12 kts | 249° |
| 2026-04-22 07:33 | 12.98468 | 80.16432 | 53 ft | 17 kts | 249° |
| 2026-04-22 07:33 | 12.98428 | 80.16320 | 52 ft | 17 kts | 250° |
| 2026-04-22 07:33 | 12.98392 | 80.16219 | 53 ft | 7 kts | 249° |
| 2026-04-22 07:33 | 12.98393 | 80.16175 | 58 ft | 7 kts | 306° |
| 2026-04-22 07:34 | 12.98452 | 80.16150 | 51 ft | 12 kts | 339° |
| 2026-04-22 07:34 | 12.98509 | 80.16083 | 58 ft | 15 kts | 267° |
| 2026-04-22 07:34 | 12.98469 | 80.15971 | 56 ft | 19 kts | 248° |
| 2026-04-22 07:34 | 12.98431 | 80.15870 | 54 ft | 0 kts | 248° |
| 2026-04-22 07:35 | 12.98427 | 80.15860 | 53 ft | 4 kts | 248° |
| 2026-04-22 07:36 | 12.98407 | 80.15810 | 54 ft | 10 kts | 246° |
| 2026-04-22 07:36 | 12.98370 | 80.15726 | 54 ft | 15 kts | 246° |
| 2026-04-22 07:36 | 12.98372 | 80.15610 | 52 ft | 18 kts | 286° |
| 2026-04-22 07:36 | 12.98385 | 80.15564 | 56 ft | 0 kts | 285° |
| 2026-04-22 07:37 | 12.98389 | 80.15549 | 53 ft | 5 kts | 285° |
| 2026-04-22 07:37 | 12.98405 | 80.15491 | 52 ft | 12 kts | 285° |
| 2026-04-22 07:38 | 12.98463 | 80.15451 | 54 ft | 13 kts | 34° |
| 2026-04-22 07:38 | 12.98508 | 80.15542 | 55 ft | 19 kts | 70° |
| 2026-04-22 07:38 | 12.98614 | 80.15834 | 56 ft | 73 kts | 68° |
| 2026-04-22 07:38 | 12.98767 | 80.16236 | 57 ft | 111 kts | 69° |
| 2026-04-22 07:39 | 12.99257 | 80.17562 | 134 ft | 172 kts | 72° |
| 2026-04-22 07:39 | 12.99555 | 80.18310 | 536 ft | 169 kts | 72° |
| 2026-04-22 07:39 | 13.00008 | 80.19442 | 1088 ft | 175 kts | 72° |
| 2026-04-22 07:39 | 13.00478 | 80.20624 | 1669 ft | 186 kts | 66° |
| 2026-04-22 07:40 | 13.01394 | 80.21668 | 1910 ft | 212 kts | 31° |
| 2026-04-22 07:40 | 13.02907 | 80.21934 | 2126 ft | 237 kts | 347° |
| 2026-04-22 07:40 | 13.04670 | 80.20602 | 2768 ft | 248 kts | 297° |
| 2026-04-22 07:40 | 13.05094 | 80.19490 | 3097 ft | 258 kts | 282° |
| 2026-04-22 07:41 | 13.05444 | 80.16970 | 3884 ft | 274 kts | 277° |
| 2026-04-22 07:41 | 13.05639 | 80.15677 | 4357 ft | 279 kts | 279° |
| 2026-04-22 07:41 | 13.05996 | 80.13712 | 5177 ft | 283 kts | 281° |
| 2026-04-22 07:41 | 13.06398 | 80.11705 | 5892 ft | 290 kts | 283° |
| 2026-04-22 07:42 | 13.06822 | 80.09657 | 6584 ft | 297 kts | 283° |
| 2026-04-22 07:42 | 13.07254 | 80.07564 | 7307 ft | 301 kts | 283° |
| 2026-04-22 07:42 | 13.07682 | 80.05450 | 8078 ft | 305 kts | 283° |
| 2026-04-22 07:42 | 13.08108 | 80.03305 | 8872 ft | 308 kts | 283° |
| 2026-04-22 07:43 | 13.08528 | 80.01162 | 9663 ft | 311 kts | 283° |
| 2026-04-22 07:43 | 13.08957 | 79.98951 | 10239 ft | 323 kts | 283° |
| 2026-04-22 07:43 | 13.09411 | 79.96617 | 10523 ft | 344 kts | 283° |
| 2026-04-22 07:43 | 13.09891 | 79.94144 | 10776 ft | 362 kts | 283° |
| 2026-04-22 07:44 | 13.10393 | 79.91551 | 11071 ft | 378 kts | 283° |
| 2026-04-22 07:44 | 13.10910 | 79.88868 | 11515 ft | 385 kts | 283° |
| 2026-04-22 07:44 | 13.11427 | 79.86172 | 12087 ft | 389 kts | 283° |
| 2026-04-22 07:44 | 13.11948 | 79.83460 | 12664 ft | 392 kts | 283° |
| 2026-04-22 07:45 | 13.12477 | 79.80702 | 13277 ft | 395 kts | 283° |
| 2026-04-22 07:45 | 13.13010 | 79.77928 | 13863 ft | 397 kts | 283° |
| 2026-04-22 07:45 | 13.13546 | 79.75142 | 14463 ft | 398 kts | 282° |
| 2026-04-22 07:45 | 13.14081 | 79.72352 | 15100 ft | 398 kts | 282° |
| 2026-04-22 07:46 | 13.14618 | 79.69560 | 15598 ft | 399 kts | 282° |
| 2026-04-22 07:46 | 13.15155 | 79.66762 | 15794 ft | 399 kts | 282° |
| 2026-04-22 07:46 | 13.15687 | 79.63991 | 15830 ft | 400 kts | 282° |
| 2026-04-22 07:46 | 13.16224 | 79.61191 | 15829 ft | 400 kts | 282° |
| 2026-04-22 07:47 | 13.16761 | 79.58390 | 15832 ft | 400 kts | 282° |
| 2026-04-22 07:47 | 13.17299 | 79.55585 | 15836 ft | 401 kts | 282° |
| 2026-04-22 07:47 | 13.17836 | 79.52775 | 15835 ft | 401 kts | 282° |
| 2026-04-22 07:47 | 13.18375 | 79.49961 | 15836 ft | 401 kts | 282° |
| 2026-04-22 07:48 | 13.18912 | 79.47155 | 15834 ft | 401 kts | 282° |
| 2026-04-22 07:48 | 13.19444 | 79.44381 | 15833 ft | 400 kts | 282° |
| 2026-04-22 07:48 | 13.19980 | 79.41577 | 15839 ft | 401 kts | 282° |
| 2026-04-22 07:48 | 13.20519 | 79.38758 | 15841 ft | 402 kts | 282° |
| 2026-04-22 07:49 | 13.21056 | 79.35942 | 15839 ft | 402 kts | 282° |
| 2026-04-22 07:49 | 13.21594 | 79.33123 | 15843 ft | 403 kts | 282° |
| 2026-04-22 07:49 | 13.22132 | 79.30301 | 15839 ft | 402 kts | 282° |
| 2026-04-22 07:49 | 13.22668 | 79.27483 | 15853 ft | 402 kts | 282° |
| 2026-04-22 07:50 | 13.23203 | 79.24671 | 15853 ft | 402 kts | 282° |
| 2026-04-22 07:50 | 13.23738 | 79.21852 | 15854 ft | 402 kts | 282° |
| 2026-04-22 07:50 | 13.24274 | 79.19028 | 15841 ft | 403 kts | 282° |
| 2026-04-22 07:50 | 13.24810 | 79.16207 | 15855 ft | 403 kts | 282° |
| 2026-04-22 07:51 | 13.25349 | 79.13374 | 15853 ft | 403 kts | 282° |
| 2026-04-22 07:51 | 13.25877 | 79.10590 | 15867 ft | 403 kts | 282° |
| 2026-04-22 07:51 | 13.26414 | 79.07764 | 15881 ft | 402 kts | 281° |
| 2026-04-22 07:51 | 13.26948 | 79.04943 | 15881 ft | 402 kts | 282° |
| 2026-04-22 07:52 | 13.27483 | 79.02114 | 15879 ft | 403 kts | 282° |
| 2026-04-22 07:52 | 13.28018 | 78.99285 | 15881 ft | 404 kts | 282° |
| 2026-04-22 07:52 | 13.28554 | 78.96449 | 15900 ft | 405 kts | 282° |
| 2026-04-22 07:52 | 13.29073 | 78.93610 | 15891 ft | 405 kts | 279° |
| 2026-04-22 07:53 | 13.29235 | 78.90727 | 15901 ft | 404 kts | 271° |
| 2026-04-22 07:53 | 13.29197 | 78.87839 | 15886 ft | 405 kts | 269° |
| 2026-04-22 07:53 | 13.29057 | 78.84951 | 15899 ft | 405 kts | 267° |
| 2026-04-22 07:53 | 13.28862 | 78.82060 | 15918 ft | 406 kts | 266° |
| 2026-04-22 07:54 | 13.28647 | 78.79204 | 15920 ft | 406 kts | 266° |
| 2026-04-22 07:54 | 13.28426 | 78.76314 | 15909 ft | 405 kts | 266° |
| 2026-04-22 07:54 | 13.28209 | 78.73422 | 15918 ft | 406 kts | 266° |
| 2026-04-22 07:54 | 13.28000 | 78.70531 | 15918 ft | 406 kts | 266° |
| 2026-04-22 07:55 | 13.27797 | 78.67635 | 15929 ft | 406 kts | 266° |
| 2026-04-22 07:55 | 13.27597 | 78.64738 | 15930 ft | 407 kts | 266° |
| 2026-04-22 07:55 | 13.27399 | 78.61842 | 15929 ft | 406 kts | 266° |
| 2026-04-22 07:55 | 13.27202 | 78.58950 | 15925 ft | 407 kts | 266° |
| 2026-04-22 07:56 | 13.27001 | 78.56019 | 15753 ft | 415 kts | 266° |
| 2026-04-22 07:56 | 13.26800 | 78.53082 | 15597 ft | 406 kts | 266° |
| 2026-04-22 07:56 | 13.26605 | 78.50260 | 15465 ft | 389 kts | 266° |
| 2026-04-22 07:56 | 13.26446 | 78.47456 | 15166 ft | 403 kts | 271° |
| 2026-04-22 07:57 | 13.26963 | 78.44624 | 14915 ft | 407 kts | 292° |
| 2026-04-22 07:57 | 13.28045 | 78.41977 | 14699 ft | 408 kts | 292° |
| 2026-04-22 07:57 | 13.28921 | 78.39196 | 14487 ft | 409 kts | 285° |
| 2026-04-22 07:57 | 13.29485 | 78.36334 | 14256 ft | 409 kts | 280° |
| 2026-04-22 07:58 | 13.29560 | 78.35815 | 14208 ft | 409 kts | 279° |
| 2026-04-22 07:58 | 13.29818 | 78.33542 | 14032 ft | 409 kts | 276° |
| 2026-04-22 07:58 | 13.29937 | 78.32092 | 13920 ft | 409 kts | 275° |
| 2026-04-22 07:58 | 13.30043 | 78.30419 | 13790 ft | 409 kts | 274° |
| 2026-04-22 07:59 | 13.30141 | 78.28365 | 13617 ft | 409 kts | 273° |
| 2026-04-22 07:59 | 13.30242 | 78.25441 | 13363 ft | 408 kts | 273° |
| 2026-04-22 07:59 | 13.30295 | 78.23418 | 13194 ft | 406 kts | 272° |
| 2026-04-22 07:59 | 13.30357 | 78.20525 | 12944 ft | 405 kts | 272° |
| 2026-04-22 08:00 | 13.30410 | 78.17641 | 12695 ft | 403 kts | 272° |
| 2026-04-22 08:00 | 13.30458 | 78.14763 | 12445 ft | 401 kts | 272° |
| 2026-04-22 08:00 | 13.30503 | 78.11907 | 12205 ft | 400 kts | 272° |
| 2026-04-22 08:00 | 13.30545 | 78.09063 | 12011 ft | 398 kts | 272° |
| 2026-04-22 08:01 | 13.30587 | 78.06221 | 11965 ft | 397 kts | 272° |
| 2026-04-22 08:01 | 13.30628 | 78.03386 | 11963 ft | 396 kts | 271° |
| 2026-04-22 08:01 | 13.30667 | 78.00593 | 11964 ft | 396 kts | 272° |
| 2026-04-22 08:01 | 13.30707 | 77.97778 | 11964 ft | 396 kts | 271° |
| 2026-04-22 08:02 | 13.30747 | 77.94950 | 11964 ft | 395 kts | 271° |
| 2026-04-22 08:02 | 13.30786 | 77.92124 | 11968 ft | 396 kts | 271° |
| 2026-04-22 08:02 | 13.30824 | 77.89296 | 11970 ft | 396 kts | 271° |
| 2026-04-22 08:02 | 13.30862 | 77.86468 | 11969 ft | 396 kts | 271° |
| 2026-04-22 08:03 | 13.30900 | 77.83641 | 11968 ft | 396 kts | 271° |
| 2026-04-22 08:03 | 13.30938 | 77.80808 | 11969 ft | 396 kts | 271° |
| 2026-04-22 08:03 | 13.30973 | 77.77976 | 11963 ft | 396 kts | 271° |
| 2026-04-22 08:03 | 13.31000 | 77.75150 | 11755 ft | 395 kts | 271° |
| 2026-04-22 08:04 | 13.31024 | 77.72328 | 11509 ft | 394 kts | 271° |
| 2026-04-22 08:04 | 13.31046 | 77.69515 | 11273 ft | 393 kts | 271° |
| 2026-04-22 08:04 | 13.31069 | 77.66705 | 11035 ft | 392 kts | 271° |
| 2026-04-22 08:04 | 13.31090 | 77.63910 | 10803 ft | 391 kts | 271° |
| 2026-04-22 08:05 | 13.31111 | 77.61161 | 10576 ft | 389 kts | 271° |
| 2026-04-22 08:05 | 13.31132 | 77.58391 | 10344 ft | 387 kts | 271° |
| 2026-04-22 08:05 | 13.31151 | 77.55636 | 10114 ft | 385 kts | 271° |
| 2026-04-22 08:05 | 13.31172 | 77.52895 | 9879 ft | 379 kts | 271° |
| 2026-04-22 08:06 | 13.31191 | 77.50298 | 9658 ft | 348 kts | 271° |
| 2026-04-22 08:06 | 13.31206 | 77.47921 | 9539 ft | 319 kts | 271° |
| 2026-04-22 08:06 | 13.31212 | 77.45719 | 9228 ft | 301 kts | 270° |
| 2026-04-22 08:06 | 13.31219 | 77.43604 | 8726 ft | 292 kts | 270° |
| 2026-04-22 08:07 | 13.31218 | 77.41539 | 8215 ft | 286 kts | 270° |
| 2026-04-22 08:07 | 13.31066 | 77.39518 | 7684 ft | 282 kts | 253° |
| 2026-04-22 08:07 | 13.30169 | 77.37766 | 7100 ft | 278 kts | 225° |
| 2026-04-22 08:07 | 13.28611 | 77.36687 | 6887 ft | 262 kts | 195° |
| 2026-04-22 08:08 | 13.26908 | 77.36532 | 6961 ft | 248 kts | 168° |
| 2026-04-22 08:08 | 13.25205 | 77.36958 | 6963 ft | 250 kts | 160° |
| 2026-04-22 08:08 | 13.23675 | 77.37711 | 6962 ft | 245 kts | 137° |
| 2026-04-22 08:08 | 13.22705 | 77.39103 | 6966 ft | 240 kts | 110° |
| 2026-04-22 08:09 | 13.22271 | 77.40751 | 6963 ft | 240 kts | 100° |
| 2026-04-22 08:09 | 13.21964 | 77.42450 | 6965 ft | 242 kts | 99° |
| 2026-04-22 08:09 | 13.21673 | 77.44149 | 6950 ft | 240 kts | 99° |
| 2026-04-22 08:09 | 13.21392 | 77.45755 | 6973 ft | 218 kts | 99° |
| 2026-04-22 08:10 | 13.21079 | 77.47211 | 6905 ft | 202 kts | 101° |
| 2026-04-22 08:10 | 13.20912 | 77.48615 | 6694 ft | 196 kts | 91° |
| 2026-04-22 08:10 | 13.20879 | 77.50007 | 6416 ft | 195 kts | 90° |
| 2026-04-22 08:10 | 13.20859 | 77.51394 | 6142 ft | 193 kts | 90° |
| 2026-04-22 08:11 | 13.20843 | 77.52731 | 5900 ft | 186 kts | 89° |
| 2026-04-22 08:11 | 13.20832 | 77.54043 | 5648 ft | 182 kts | 90° |
| 2026-04-22 08:11 | 13.20821 | 77.55330 | 5410 ft | 178 kts | 90° |
| 2026-04-22 08:11 | 13.20811 | 77.56576 | 5203 ft | 172 kts | 89° |
| 2026-04-22 08:12 | 13.20804 | 77.57787 | 4980 ft | 169 kts | 89° |
| 2026-04-22 08:12 | 13.20792 | 77.58994 | 4784 ft | 169 kts | 89° |
| 2026-04-22 08:12 | 13.20782 | 77.60190 | 4551 ft | 166 kts | 89° |
| 2026-04-22 08:12 | 13.20773 | 77.61323 | 4368 ft | 153 kts | 90° |
| 2026-04-22 08:13 | 13.20765 | 77.62374 | 4171 ft | 143 kts | 90° |
| 2026-04-22 08:13 | 13.20758 | 77.63381 | 4000 ft | 140 kts | 89° |
| 2026-04-22 08:13 | 13.20747 | 77.64381 | 3701 ft | 139 kts | 90° |
| 2026-04-22 08:13 | 13.20733 | 77.65375 | 3538 ft | 142 kts | 91° |
| 2026-04-22 08:14 | 13.20723 | 77.66391 | 3366 ft | 140 kts | 87° |
| 2026-04-22 08:14 | 13.20723 | 77.67388 | 3185 ft | 141 kts | 88° |
| 2026-04-22 08:14 | 13.20727 | 77.68389 | 3040 ft | 140 kts | 89° |
| 2026-04-22 08:14 | 13.20710 | 77.69353 | 2972 ft | 122 kts | 90° |
| 2026-04-22 08:15 | 13.20704 | 77.70040 | 2972 ft | 70 kts | 90° |
| 2026-04-22 08:15 | 13.20687 | 77.70421 | 2971 ft | 47 kts | 103° |
| 2026-04-22 08:15 | 13.20573 | 77.70663 | 2972 ft | 17 kts | 120° |
| 2026-04-22 08:15 | 13.20527 | 77.70767 | 2970 ft | 15 kts | 94° |
| 2026-04-22 08:16 | 13.20526 | 77.70873 | 2968 ft | 15 kts | 90° |
| 2026-04-22 08:16 | 13.20525 | 77.70982 | 2967 ft | 15 kts | 90° |
| 2026-04-22 08:16 | 13.20524 | 77.71085 | 2968 ft | 14 kts | 91° |
| 2026-04-22 08:16 | 13.20522 | 77.71178 | 2969 ft | 13 kts | 91° |
| 2026-04-22 08:17 | 13.20512 | 77.71262 | 2969 ft | 11 kts | 127° |
| 2026-04-22 08:17 | 13.20449 | 77.71276 | 2970 ft | 8 kts | 180° |
| 2026-04-22 08:17 | 13.20387 | 77.71275 | 2971 ft | 10 kts | 181° |
| 2026-04-22 08:17 | 13.20301 | 77.71274 | 2972 ft | 14 kts | 181° |
| 2026-04-22 08:18 | 13.20239 | 77.71220 | 2972 ft | 14 kts | 269° |
| 2026-04-22 08:18 | 13.20239 | 77.71104 | 2971 ft | 18 kts | 270° |
| 2026-04-22 08:18 | 13.20242 | 77.70979 | 2971 ft | 6 kts | 270° |
| 2026-04-22 08:18 | 13.20242 | 77.70935 | 2972 ft | 6 kts | 266° |
| 2026-04-22 08:19 | 13.20225 | 77.70917 | 2972 ft | 2 kts | 185° |
| 2026-04-22 08:19 | 13.20198 | 77.70918 | 2971 ft | 4 kts | 180° |
| 2026-04-22 08:19 | 13.20175 | 77.70918 | 2971 ft | 2 kts | 179° |
| 2026-04-22 08:19 | 13.20174 | 77.70918 | 2971 ft | 0 kts | 179° |